X  Fermer Données météorologiques d'aviation de Metar     EHRD Rotterdam The Hague Airport
Température
17°C Température
16°C Point de rosée
94% Humidité



Vent
10 KM/H
6 MPH
3 M/S
5 KTS



100°
E
Conditions actuelles

Clair Clair
Pression 1005.76 (hPa) - 29.7 (inHg)
Visibilité 6 (mile) - 9.7 (km)
Aéroport
Code de l'aéroport EHRD

Emplacement: Rotterdam The Hague Airport
Distance: 14 (km)

Metar:
EHRD 152255Z AUTO 10005KT 9999 NSC 17/16 Q1006 NOSIG

Temps: 16-07-2024 00:55 CEST